Nur fliegen ist schöner ....

Willkommen beim Flugservice Bautzen GmbH

Wir sind eine nach europäischen Richtlinien zugelassene Flugschule und lizenziertes Luftfahrtunternehmen. Bei uns können sie nicht nur Rundflüge über die Oberlausitz oder Sachsen buchen, sondern in unserer Flugschule selber das Fliegen erlernen. Erfahrene Fluglehrer stehen ihnen dabei zur Seite.

Wir bieten außerdem Businessflüghe sowie Transportleistungen auf dem Luftweg, ganz nach ihren Wünschen, an. Schauen sie sich in Ruhe bei uns um und wenn sie Fragen haben oder weitere Informationen benötigen, scheuen sie sich nicht Kontakt mit uns aufzunehmen.

Rundflüge können sie ganz leicht auch online in unserem Shop buchen.

Terminkalender

Letzter Monat Juli 2016 Nächster Monat
Mo Di Mi Do Fr Sa So
week 26 1 2 3
week 27 4 5 6 7 8 9 10
week 28 11 12 13 14 15 16 17
week 29 18 19 20 21 22 23 24
week 30 25 26 27 28 29 30 31

Flugwetterinfo

[Quelle: ADDS]
METAR
EDDC 250150Z VRB01KT 0500 R04/0750V1300U FG BKN001 17/17 Q1018 =
TAF
AMD EDDC 250041Z 2500/2524 VRB03KT 5000 BR FEW040 BECMG 2500/2503 2500 BR TEMPO 2500/2506 0100 FG BKN001 BECMG 2506/2508 36005KT 9999 =
SR / SS: 03:18 / 18:58 UTC (EDAB Flugplatz Bautzen 2016-07-25)

Webcam EDAB

Webcam EDAB
Flugservice Bautzen GmbH, Kornmarkt 34, 02625 Bautzen  Telefon: +49 (3591) 211105, Telefax: +49 (3591) 274512, E-Mail:  flugservice(at)fsbautzen.de